Terminal Aerodrome Forecast
Issued by NWS Huntsville, AL

Home | Current Version | Previous Version | Text Only | Print | Product List | Glossary On
Versions: 1 2 3 4 5 6 7 8 9 10 11 12 13 14 15 16 17 18 19 20 21 22 23 24 25 26 27 28 29 30 31 32 33
000
FTUS44 KHUN 251730
TAFMSL
TAF
KMSL 251730Z 2518/2618 23010G20KT P6SM BKN080
     FM252300 27010KT P6SM VCSH OVC050
     FM260100 29010KT 5SM -SHRA OVC020
     FM260600 31011KT 5SM -RA BR OVC009
     FM260900 32010KT 5SM -RASN BR OVC008
     FM261300 31012KT P6SM BKN015=

USA.gov is the U.S. government's official web portal to all federal, state and local government web resources and services.